Time;durP1;ratioP1;P1;durP2;ratioP2;P2;SDS_P1;SDS_P2;PMS_P1;PMS_P2;Temp;Humidity;BMP_temperature;BMP_pressure;BME280_temperature;BME280_humidity;BME280_pressure;Samples;Min_cycle;Max_cycle;Signal;HPM_P1;HPM_P2
2022/06/12 00:01:29;;;;;;;4.70;3.47;;;;;;;;;;5068488;28;20205;-70
2022/06/12 00:03:55;;;;;;;6.72;3.58;;;;;;;;;;5068331;28;20235;-70
2022/06/12 00:06:22;;;;;;;3.80;3.58;;;;;;;;;;5068119;28;20224;-70
2022/06/12 00:08:49;;;;;;;5.20;3.88;;;;;;;;;;5068412;28;20197;-70
2022/06/12 00:11:17;;;;;;;4.15;3.75;;;;;;;;;;5068306;28;20204;-70
2022/06/12 00:13:44;;;;;;;4.05;3.72;;;;;;;;;;5068446;28;20419;-70
2022/06/12 00:16:12;;;;;;;6.40;3.65;;;;;;;;;;5068245;28;20197;-70
2022/06/12 00:18:40;;;;;;;4.43;3.58;;;;;;;;;;5068350;28;20204;-70
2022/06/12 00:21:12;;;;;;;6.30;3.55;;;;;;;;;;5068321;28;20200;-70
2022/06/12 00:23:40;;;;;;;3.67;3.38;;;;;;;;;;5068129;28;20220;-70
2022/06/12 00:26:07;;;;;;;5.93;3.45;;;;;;;;;;5068344;28;20201;-70
2022/06/12 00:28:33;;;;;;;6.85;3.53;;;;;;;;;;5068263;28;20208;-70
2022/06/12 00:31:00;;;;;;;4.43;3.30;;;;;;;;;;5067085;28;20197;-70
2022/06/12 00:33:26;;;;;;;6.25;4.38;;;;;;;;;;5064896;28;20519;-70
2022/06/12 00:35:53;;;;;;;5.60;3.50;;;;;;;;;;5064880;28;20196;-70
2022/06/12 00:38:20;;;;;;;3.88;3.60;;;;;;;;;;5064728;28;20197;-70
2022/06/12 00:40:46;;;;;;;3.63;3.33;;;;;;;;;;5065053;28;20205;-70
2022/06/12 00:43:13;;;;;;;4.25;3.50;;;;;;;;;;5064763;28;20197;-70
2022/06/12 00:45:42;;;;;;;4.45;3.60;;;;;;;;;;5064851;28;20220;-70
2022/06/12 00:48:09;;;;;;;4.50;3.85;;;;;;;;;;5064941;28;20399;-70
2022/06/12 00:50:37;;;;;;;4.40;4.00;;;;;;;;;;5064783;28;20201;-70
2022/06/12 00:53:07;;;;;;;4.05;3.75;;;;;;;;;;5064533;28;20204;-70
2022/06/12 00:55:37;;;;;;;4.50;3.45;;;;;;;;;;5064756;28;20243;-70
2022/06/12 00:58:04;;;;;;;8.73;4.03;;;;;;;;;;5064401;28;20201;-70
2022/06/12 01:00:32;;;;;;;4.30;3.90;;;;;;;;;;5064548;28;20204;-70
2022/06/12 01:02:59;;;;;;;6.93;4.05;;;;;;;;;;5064475;28;20203;-70
2022/06/12 01:08:11;;;;;;;7.05;4.20;;;;;;;;;;5064251;28;20260;-70
2022/06/12 01:10:40;;;;;;;6.85;4.05;;;;;;;;;;5064408;28;20219;-70
2022/06/12 01:13:08;;;;;;;4.60;4.20;;;;;;;;;;5064213;28;20424;-70
2022/06/12 01:15:37;;;;;;;4.57;4.18;;;;;;;;;;5064204;28;20384;-70
2022/06/12 01:18:06;;;;;;;5.82;4.30;;;;;;;;;;5063856;28;20197;-70
2022/06/12 01:20:37;;;;;;;7.80;4.75;;;;;;;;;;5064202;28;20197;-70
2022/06/12 01:23:19;;;;;;;4.72;4.32;;;;;;;;;;5064105;28;20211;-70
2022/06/12 01:25:52;;;;;;;6.70;4.40;;;;;;;;;;5064088;28;20393;-70
2022/06/12 01:28:33;;;;;;;4.15;3.85;;;;;;;;;;5063804;28;20216;-70
2022/06/12 01:31:02;;;;;;;5.72;4.00;;;;;;;;;;5063870;28;20229;-70
2022/06/12 01:33:30;;;;;;;5.00;4.22;;;;;;;;;;5063915;28;20203;-70
2022/06/12 01:35:59;;;;;;;6.10;4.20;;;;;;;;;;5063801;28;20205;-70
2022/06/12 01:38:32;;;;;;;5.45;4.05;;;;;;;;;;5063815;28;20203;-70
2022/06/12 01:41:00;;;;;;;4.22;3.67;;;;;;;;;;5063205;28;20496;-70
2022/06/12 01:43:29;;;;;;;5.40;3.78;;;;;;;;;;5063684;28;20197;-70
2022/06/12 01:46:01;;;;;;;4.15;3.75;;;;;;;;;;5064094;28;20196;-70
2022/06/12 01:48:31;;;;;;;9.70;3.88;;;;;;;;;;5063515;28;20242;-70
2022/06/12 01:51:01;;;;;;;4.70;4.18;;;;;;;;;;5063779;28;20366;-70
2022/06/12 01:53:30;;;;;;;4.35;3.95;;;;;;;;;;5063655;28;20197;-70
2022/06/12 01:56:00;;;;;;;4.18;3.88;;;;;;;;;;5063495;28;20224;-70
2022/06/12 01:58:29;;;;;;;3.80;3.40;;;;;;;;;;5063420;28;20197;-70
2022/06/12 02:01:01;;;;;;;8.65;3.83;;;;;;;;;;5063204;28;20197;-70
2022/06/12 02:03:30;;;;;;;3.78;3.42;;;;;;;;;;5063482;28;20189;-70
2022/06/12 02:06:00;;;;;;;3.70;3.50;;;;;;;;;;5063152;28;20232;-70
2022/06/12 02:08:29;;;;;;;5.43;3.60;;;;;;;;;;5063343;28;20247;-69
2022/06/12 02:10:57;;;;;;;5.93;3.70;;;;;;;;;;5063233;28;20205;-70
2022/06/12 02:13:25;;;;;;;5.47;3.85;;;;;;;;;;5062998;28;20203;-70
2022/06/12 02:15:54;;;;;;;3.78;3.50;;;;;;;;;;5063279;28;20457;-70
2022/06/12 02:18:25;;;;;;;4.30;3.90;;;;;;;;;;5063074;28;20197;-70
2022/06/12 02:20:55;;;;;;;4.70;3.65;;;;;;;;;;5063122;28;20504;-70
2022/06/12 02:23:24;;;;;;;4.28;3.88;;;;;;;;;;5063029;28;20205;-70
2022/06/12 02:25:52;;;;;;;4.13;3.72;;;;;;;;;;5062676;28;20223;-70
2022/06/12 02:28:20;;;;;;;4.80;3.80;;;;;;;;;;5062590;28;20197;-70
2022/06/12 02:30:48;;;;;;;4.18;3.88;;;;;;;;;;5062765;28;20204;-70
2022/06/12 02:33:16;;;;;;;4.25;3.83;;;;;;;;;;5062761;28;20189;-70
2022/06/12 02:35:46;;;;;;;3.72;3.42;;;;;;;;;;5062684;28;20216;-70
2022/06/12 02:38:16;;;;;;;4.25;3.85;;;;;;;;;;5062477;28;20197;-70
2022/06/12 02:40:44;;;;;;;4.07;3.78;;;;;;;;;;5062566;28;20258;-70
2022/06/12 02:43:13;;;;;;;4.00;3.70;;;;;;;;;;5062617;28;20205;-70
2022/06/12 02:45:44;;;;;;;4.05;3.75;;;;;;;;;;5062652;28;20220;-70
2022/06/12 02:48:10;;;;;;;4.95;4.25;;;;;;;;;;5062309;28;20212;-70
2022/06/12 02:50:39;;;;;;;6.50;3.95;;;;;;;;;;5062470;28;20197;-70
2022/06/12 02:53:13;;;;;;;5.13;4.28;;;;;;;;;;5062664;28;20205;-70
2022/06/12 02:55:44;;;;;;;4.15;3.72;;;;;;;;;;5061922;28;20501;-70
2022/06/12 02:58:14;;;;;;;4.38;4.03;;;;;;;;;;5062324;28;20204;-70
2022/06/12 03:00:44;;;;;;;5.07;3.58;;;;;;;;;;5062350;28;20205;-70
2022/06/12 03:03:19;;;;;;;4.32;3.70;;;;;;;;;;5062805;28;20507;-70
2022/06/12 03:05:49;;;;;;;4.50;3.75;;;;;;;;;;5062238;28;20524;-70
2022/06/12 03:08:18;;;;;;;3.97;3.78;;;;;;;;;;5062253;28;20204;-70
2022/06/12 03:10:46;;;;;;;5.28;3.63;;;;;;;;;;5062325;28;20205;-70
2022/06/12 03:13:12;;;;;;;4.30;3.80;;;;;;;;;;5062282;28;20197;-70
2022/06/12 03:15:40;;;;;;;4.20;3.83;;;;;;;;;;5062320;28;20264;-70
2022/06/12 03:18:09;;;;;;;4.22;3.83;;;;;;;;;;5061874;28;20216;-70
2022/06/12 03:20:39;;;;;;;3.72;3.53;;;;;;;;;;5062329;28;20204;-70
2022/06/12 03:23:10;;;;;;;3.78;3.45;;;;;;;;;;5062600;28;20373;-70
2022/06/12 03:25:43;;;;;;;5.47;4.03;;;;;;;;;;5061962;28;20231;-70
2022/06/12 03:28:14;;;;;;;6.63;4.20;;;;;;;;;;5061888;28;20204;-70
2022/06/12 03:30:43;;;;;;;6.43;4.40;;;;;;;;;;5061902;28;20243;-70
2022/06/12 03:33:12;;;;;;;4.28;3.90;;;;;;;;;;5062217;28;20197;-70
2022/06/12 03:35:43;;;;;;;4.90;4.40;;;;;;;;;;5061972;28;20264;-70
2022/06/12 03:38:13;;;;;;;3.88;3.67;;;;;;;;;;5061916;28;20204;-70
2022/06/12 03:40:44;;;;;;;4.43;4.10;;;;;;;;;;5062099;28;20201;-70
2022/06/12 03:43:14;;;;;;;4.43;4.05;;;;;;;;;;5061872;28;20193;-70
2022/06/12 03:45:43;;;;;;;4.43;4.10;;;;;;;;;;5061948;28;20225;-70
2022/06/12 03:48:16;;;;;;;4.55;4.15;;;;;;;;;;5061859;28;20197;-70
2022/06/12 03:50:46;;;;;;;4.78;4.20;;;;;;;;;;5061955;28;20224;-70
2022/06/12 03:53:17;;;;;;;5.20;4.07;;;;;;;;;;5061844;28;20384;-70
2022/06/12 03:58:37;;;;;;;4.85;4.00;;;;;;;;;;5044225;28;20243;-70
2022/06/12 04:01:03;;;;;;;4.13;3.80;;;;;;;;;;5061966;28;20201;-70
2022/06/12 04:03:31;;;;;;;3.75;3.53;;;;;;;;;;5061851;28;20504;-70
2022/06/12 04:05:58;;;;;;;4.47;4.13;;;;;;;;;;5061261;28;20225;-70
2022/06/12 04:08:26;;;;;;;7.95;4.07;;;;;;;;;;5065148;28;20201;-70
2022/06/12 04:10:54;;;;;;;4.10;3.53;;;;;;;;;;5065629;28;20220;-70
2022/06/12 04:13:21;;;;;;;8.27;4.20;;;;;;;;;;5065535;28;20205;-70
2022/06/12 04:15:50;;;;;;;6.97;4.38;;;;;;;;;;5065396;28;20200;-70
2022/06/12 04:18:17;;;;;;;5.53;3.67;;;;;;;;;;5065148;28;20204;-70
2022/06/12 04:20:49;;;;;;;4.63;4.00;;;;;;;;;;5065372;28;20204;-70
2022/06/12 04:23:19;;;;;;;4.20;3.78;;;;;;;;;;5065311;28;20193;-70
2022/06/12 04:25:49;;;;;;;5.15;4.60;;;;;;;;;;5065292;28;20216;-70
2022/06/12 04:28:25;;;;;;;4.43;4.03;;;;;;;;;;5065103;28;20197;-71
2022/06/12 04:30:53;;;;;;;5.50;3.90;;;;;;;;;;5065181;28;20224;-70
2022/06/12 04:33:24;;;;;;;5.97;4.25;;;;;;;;;;5065259;28;20197;-70
2022/06/12 04:35:52;;;;;;;4.78;3.78;;;;;;;;;;5065036;28;20200;-71
2022/06/12 04:38:18;;;;;;;7.90;4.10;;;;;;;;;;5065267;28;20412;-71
2022/06/12 04:40:45;;;;;;;5.15;3.95;;;;;;;;;;5064949;28;20220;-70
2022/06/12 04:43:11;;;;;;;5.53;4.55;;;;;;;;;;5064916;28;20205;-70
2022/06/12 04:45:40;;;;;;;6.63;4.03;;;;;;;;;;5064745;28;20413;-71
2022/06/12 04:48:07;;;;;;;6.57;4.30;;;;;;;;;;5064714;28;20205;-70
2022/06/12 04:50:33;;;;;;;8.43;4.70;;;;;;;;;;5064906;28;20219;-70
2022/06/12 04:52:59;;;;;;;4.68;4.28;;;;;;;;;;5065175;28;20197;-71
2022/06/12 04:55:26;;;;;;;6.47;4.40;;;;;;;;;;5064611;28;20493;-71
2022/06/12 04:57:52;;;;;;;4.90;4.45;;;;;;;;;;5064394;28;20593;-70
2022/06/12 05:00:19;;;;;;;6.15;4.35;;;;;;;;;;5064632;28;20212;-71
2022/06/12 05:02:47;;;;;;;3.97;3.78;;;;;;;;;;5064716;28;20385;-71
2022/06/12 05:05:13;;;;;;;4.30;3.90;;;;;;;;;;5064349;28;20225;-71
2022/06/12 05:07:40;;;;;;;5.80;4.30;;;;;;;;;;5064298;28;20268;-71
2022/06/12 05:10:07;;;;;;;4.80;4.10;;;;;;;;;;5064840;28;20197;-71
2022/06/12 05:12:33;;;;;;;4.05;3.75;;;;;;;;;;5064224;28;20200;-71
2022/06/12 05:15:00;;;;;;;5.97;4.57;;;;;;;;;;5064547;28;20213;-70
2022/06/12 05:17:27;;;;;;;5.13;4.57;;;;;;;;;;5063688;28;20228;-71
2022/06/12 05:19:54;;;;;;;4.70;4.40;;;;;;;;;;5064405;28;20197;-70
2022/06/12 05:22:22;;;;;;;4.82;4.32;;;;;;;;;;5064252;28;20203;-71
2022/06/12 05:24:49;;;;;;;5.18;4.68;;;;;;;;;;5064704;28;20221;-70
2022/06/12 05:27:17;;;;;;;4.35;4.15;;;;;;;;;;5063786;28;20197;-70
2022/06/12 05:29:43;;;;;;;4.55;4.15;;;;;;;;;;5064188;28;20201;-70
2022/06/12 05:32:12;;;;;;;4.53;4.22;;;;;;;;;;5064059;28;20197;-71
2022/06/12 05:34:39;;;;;;;5.53;4.63;;;;;;;;;;5064182;28;20216;-70
2022/06/12 05:37:06;;;;;;;5.55;5.00;;;;;;;;;;5063737;28;20504;-70
2022/06/12 05:39:33;;;;;;;4.97;4.47;;;;;;;;;;5063855;28;20197;-70
2022/06/12 05:41:59;;;;;;;8.60;7.00;;;;;;;;;;5063975;28;20386;-71
2022/06/12 05:44:25;;;;;;;10.27;6.15;;;;;;;;;;5063950;28;20206;-71
2022/06/12 05:46:52;;;;;;;6.25;5.40;;;;;;;;;;5063794;28;20225;-71
2022/06/12 05:49:18;;;;;;;6.47;5.78;;;;;;;;;;5063757;28;20287;-71
2022/06/12 05:51:45;;;;;;;4.97;4.65;;;;;;;;;;5063584;28;20201;-71
2022/06/12 05:54:12;;;;;;;7.57;4.93;;;;;;;;;;5063541;28;20197;-71
2022/06/12 05:56:39;;;;;;;4.60;4.20;;;;;;;;;;5063672;28;20431;-71
2022/06/12 05:59:06;;;;;;;5.28;4.20;;;;;;;;;;5063533;28;20201;-70
2022/06/12 06:01:32;;;;;;;7.72;4.10;;;;;;;;;;5063456;28;20197;-70
2022/06/12 06:03:59;;;;;;;5.03;4.57;;;;;;;;;;5063442;28;20197;-71
2022/06/12 06:06:26;;;;;;;4.82;4.20;;;;;;;;;;5062840;28;20224;-71
2022/06/12 06:08:52;;;;;;;4.15;3.83;;;;;;;;;;5063184;28;20204;-71
2022/06/12 06:11:20;;;;;;;4.80;3.80;;;;;;;;;;5063144;28;20197;-71
2022/06/12 06:13:47;;;;;;;7.10;4.57;;;;;;;;;;5063326;28;20197;-71
2022/06/12 06:16:13;;;;;;;6.15;5.47;;;;;;;;;;5063062;28;20422;-71
2022/06/12 06:18:40;;;;;;;5.05;4.65;;;;;;;;;;5063184;28;20511;-71
2022/06/12 06:21:08;;;;;;;4.13;3.90;;;;;;;;;;5063018;28;20197;-71
2022/06/12 06:23:34;;;;;;;5.43;4.20;;;;;;;;;;5062975;28;20204;-71
2022/06/12 06:26:01;;;;;;;4.53;4.10;;;;;;;;;;5062885;28;20227;-70
2022/06/12 06:28:28;;;;;;;6.18;4.45;;;;;;;;;;5063012;28;20197;-70
2022/06/12 06:30:55;;;;;;;5.55;3.70;;;;;;;;;;5062114;28;20496;-70
2022/06/12 06:33:21;;;;;;;6.30;4.20;;;;;;;;;;5062913;28;20197;-71
2022/06/12 06:35:49;;;;;;;4.93;4.22;;;;;;;;;;5062780;28;20493;-70
2022/06/12 06:38:15;;;;;;;4.28;3.88;;;;;;;;;;5062805;28;20205;-71
2022/06/12 06:40:42;;;;;;;5.45;4.13;;;;;;;;;;5062875;28;20216;-71
2022/06/12 06:43:09;;;;;;;3.78;3.55;;;;;;;;;;5063033;28;20244;-71
2022/06/12 06:48:21;;;;;;;5.32;3.70;;;;;;;;;;5062354;28;20288;-71
2022/06/12 06:50:48;;;;;;;6.93;3.80;;;;;;;;;;5062799;28;20507;-70
2022/06/12 06:53:14;;;;;;;4.30;4.05;;;;;;;;;;5062590;28;20204;-71
2022/06/12 06:55:41;;;;;;;4.85;4.32;;;;;;;;;;5062502;28;20193;-71
2022/06/12 06:58:09;;;;;;;4.05;3.75;;;;;;;;;;5062180;28;20530;-71
2022/06/12 07:00:38;;;;;;;3.72;3.40;;;;;;;;;;5062288;28;20273;-71
2022/06/12 07:03:04;;;;;;;4.22;3.30;;;;;;;;;;5062311;28;20423;-71
2022/06/12 07:05:31;;;;;;;4.82;3.53;;;;;;;;;;5062182;28;20233;-71
2022/06/12 07:07:58;;;;;;;4.13;3.85;;;;;;;;;;5062122;28;20607;-71
2022/06/12 07:10:25;;;;;;;4.30;3.90;;;;;;;;;;5062131;28;20527;-71
2022/06/12 07:12:52;;;;;;;6.35;4.72;;;;;;;;;;5062482;28;20276;-71
2022/06/12 07:15:19;;;;;;;6.90;6.20;;;;;;;;;;5062041;28;20199;-71
2022/06/12 07:17:47;;;;;;;6.20;3.70;;;;;;;;;;5062080;28;20203;-71
2022/06/12 07:20:15;;;;;;;7.22;4.70;;;;;;;;;;5062326;28;20209;-71
2022/06/12 07:22:41;;;;;;;6.88;4.07;;;;;;;;;;5062013;28;20197;-71
2022/06/12 07:25:08;;;;;;;3.85;3.65;;;;;;;;;;5061950;28;20212;-71
2022/06/12 07:27:35;;;;;;;4.78;3.97;;;;;;;;;;5061894;28;20209;-71
2022/06/12 07:30:01;;;;;;;5.82;3.78;;;;;;;;;;5061988;28;20502;-71
2022/06/12 07:32:28;;;;;;;4.30;3.58;;;;;;;;;;5062277;28;20207;-71
2022/06/12 07:34:55;;;;;;;8.63;3.90;;;;;;;;;;5061974;28;20204;-71
2022/06/12 07:37:22;;;;;;;5.10;3.65;;;;;;;;;;5061687;28;20354;-71
2022/06/12 07:39:48;;;;;;;3.30;3.10;;;;;;;;;;5061989;28;20201;-71
2022/06/12 07:42:15;;;;;;;5.88;3.45;;;;;;;;;;5065109;28;20212;-71
2022/06/12 07:44:42;;;;;;;4.00;3.40;;;;;;;;;;5065884;28;20264;-71
2022/06/12 07:47:08;;;;;;;8.65;3.90;;;;;;;;;;5066042;28;20415;-71
2022/06/12 07:49:35;;;;;;;3.40;3.20;;;;;;;;;;5066055;28;20607;-71
2022/06/12 07:52:05;;;;;;;3.30;3.00;;;;;;;;;;5065937;28;20204;-71
2022/06/12 07:54:32;;;;;;;6.60;4.30;;;;;;;;;;5065813;28;20189;-71
2022/06/12 07:56:58;;;;;;;5.03;3.40;;;;;;;;;;5065505;28;20200;-71
2022/06/12 07:59:25;;;;;;;5.25;3.38;;;;;;;;;;5065606;28;20200;-71
2022/06/12 08:01:52;;;;;;;3.92;3.10;;;;;;;;;;5065831;28;20235;-71
2022/06/12 08:04:19;;;;;;;4.20;3.38;;;;;;;;;;5065576;28;20372;-71
2022/06/12 08:06:45;;;;;;;3.60;3.38;;;;;;;;;;5065174;28;20224;-71
2022/06/12 08:09:13;;;;;;;3.40;3.10;;;;;;;;;;5065407;28;20205;-71
2022/06/12 08:11:41;;;;;;;8.73;3.25;;;;;;;;;;5065204;28;20197;-71
2022/06/12 08:14:08;;;;;;;2.80;2.60;;;;;;;;;;5065640;28;20212;-71
2022/06/12 08:16:34;;;;;;;5.25;2.95;;;;;;;;;;5065337;28;20193;-71
2022/06/12 08:19:00;;;;;;;2.92;2.40;;;;;;;;;;5065386;28;20420;-71
2022/06/12 08:21:27;;;;;;;4.90;2.85;;;;;;;;;;5065220;28;20196;-61
2022/06/12 08:23:54;;;;;;;3.67;2.95;;;;;;;;;;5065613;28;20197;-67
2022/06/12 08:26:24;;;;;;;3.20;2.88;;;;;;;;;;5064717;28;20559;-60
2022/06/12 08:28:52;;;;;;;3.08;2.65;;;;;;;;;;5065011;28;20200;-61
2022/06/12 08:31:21;;;;;;;6.82;3.03;;;;;;;;;;5064999;28;20243;-61
2022/06/12 08:33:49;;;;;;;7.75;2.53;;;;;;;;;;5065041;28;20204;-60
2022/06/12 08:36:17;;;;;;;2.65;2.45;;;;;;;;;;5064852;28;20496;-60
2022/06/12 08:38:44;;;;;;;2.58;2.38;;;;;;;;;;5064822;28;20422;-59
2022/06/12 08:41:13;;;;;;;3.25;2.95;;;;;;;;;;5065082;28;20279;-61
2022/06/12 08:43:46;;;;;;;2.55;2.35;;;;;;;;;;5065057;28;20197;-61
2022/06/12 08:46:16;;;;;;;4.10;2.45;;;;;;;;;;5064622;28;20220;-60
2022/06/12 08:48:47;;;;;;;4.38;2.70;;;;;;;;;;5064824;28;20197;-60
2022/06/12 08:51:16;;;;;;;4.07;2.60;;;;;;;;;;5064670;28;20196;-61
2022/06/12 08:53:46;;;;;;;4.32;2.53;;;;;;;;;;5063933;28;20219;-61
2022/06/12 08:56:14;;;;;;;4.13;2.78;;;;;;;;;;5064526;28;20193;-60
2022/06/12 08:58:46;;;;;;;3.30;3.00;;;;;;;;;;5057407;28;20212;-60
2022/06/12 09:01:13;;;;;;;6.10;2.70;;;;;;;;;;5057790;28;20531;-61
2022/06/12 09:03:41;;;;;;;3.33;2.80;;;;;;;;;;5045430;28;20209;-61
2022/06/12 09:06:10;;;;;;;2.65;2.40;;;;;;;;;;5058051;28;20500;-60
2022/06/12 09:08:42;;;;;;;2.70;2.50;;;;;;;;;;5058494;28;20455;-61
2022/06/12 09:11:13;;;;;;;3.22;2.92;;;;;;;;;;5058276;28;20209;-60
2022/06/12 09:13:45;;;;;;;3.53;2.65;;;;;;;;;;5058022;28;20208;-60
2022/06/12 09:16:15;;;;;;;3.13;2.88;;;;;;;;;;5058126;28;20196;-60
2022/06/12 09:18:46;;;;;;;4.88;2.65;;;;;;;;;;5058223;28;20512;-61
2022/06/12 09:21:15;;;;;;;3.47;2.75;;;;;;;;;;5057557;28;20284;-61
2022/06/12 09:23:47;;;;;;;13.02;7.38;;;;;;;;;;5058139;28;20216;-60
2022/06/12 09:26:17;;;;;;;2.65;2.50;;;;;;;;;;5057578;28;20224;-60
2022/06/12 09:28:46;;;;;;;5.45;2.47;;;;;;;;;;5057480;28;20710;-61
2022/06/12 09:31:18;;;;;;;4.47;2.78;;;;;;;;;;5057387;28;20209;-61
2022/06/12 09:33:48;;;;;;;2.53;2.33;;;;;;;;;;5057552;28;20575;-62
2022/06/12 09:36:29;;;;;;;5.30;2.83;;;;;;;;;;5057716;28;20461;-62
2022/06/12 09:39:01;;;;;;;4.88;2.25;;;;;;;;;;5057503;28;20215;-62
2022/06/12 09:41:31;;;;;;;5.05;3.33;;;;;;;;;;5057455;28;20224;-62
2022/06/12 09:44:03;;;;;;;8.35;4.95;;;;;;;;;;5057872;28;20205;-62
2022/06/12 09:46:35;;;;;;;7.82;4.15;;;;;;;;;;5057674;28;20244;-63
2022/06/12 09:49:05;;;;;;;2.88;2.17;;;;;;;;;;5057832;28;20224;-62
2022/06/12 09:51:45;;;;;;;2.70;2.15;;;;;;;;;;5057246;28;20216;-62
2022/06/12 09:54:29;;;;;;;2.78;2.00;;;;;;;;;;5057676;28;20208;-62
2022/06/12 09:57:00;;;;;;;2.03;1.92;;;;;;;;;;5056995;28;20209;-62
2022/06/12 09:59:32;;;;;;;3.85;1.38;;;;;;;;;;5062335;28;20208;-62
2022/06/12 10:02:01;;;;;;;2.70;1.50;;;;;;;;;;5062790;28;20203;-62
2022/06/12 10:04:30;;;;;;;8.80;1.98;;;;;;;;;;5061781;28;20208;-62
2022/06/12 10:06:58;;;;;;;2.42;1.25;;;;;;;;;;5062675;28;20244;-62
2022/06/12 10:09:29;;;;;;;1.98;1.20;;;;;;;;;;5062997;28;20256;-62
2022/06/12 10:11:58;;;;;;;2.63;1.50;;;;;;;;;;5062655;28;20204;-61
2022/06/12 10:14:27;;;;;;;3.88;1.23;;;;;;;;;;5062622;28;20223;-62
2022/06/12 10:16:55;;;;;;;1.50;1.50;;;;;;;;;;5062195;28;20196;-62
2022/06/12 10:19:25;;;;;;;4.85;3.53;;;;;;;;;;5062510;28;20197;-62
2022/06/12 10:21:53;;;;;;;3.63;1.58;;;;;;;;;;5063155;28;20208;-63
2022/06/12 10:24:21;;;;;;;2.10;2.00;;;;;;;;;;5062660;28;20212;-62
2022/06/12 10:26:54;;;;;;;2.28;1.70;;;;;;;;;;5062178;28;20460;-68
2022/06/12 10:29:24;;;;;;;4.53;1.48;;;;;;;;;;5062459;28;20211;-70
2022/06/12 10:31:56;;;;;;;2.22;1.48;;;;;;;;;;5062594;28;20197;-70
2022/06/12 10:34:28;;;;;;;1.77;1.50;;;;;;;;;;5062384;28;20208;-70
2022/06/12 10:36:54;;;;;;;2.60;1.60;;;;;;;;;;5062579;28;20263;-70
2022/06/12 10:39:22;;;;;;;4.40;1.70;;;;;;;;;;5062711;28;20489;-70
2022/06/12 10:41:50;;;;;;;1.50;1.40;;;;;;;;;;5062606;28;20196;-70
2022/06/12 10:44:36;;;;;;;3.03;1.70;;;;;;;;;;5062661;28;20196;-70
2022/06/12 10:47:24;;;;;;;17.88;10.77;;;;;;;;;;5062468;28;20212;-70
2022/06/12 10:50:07;;;;;;;3.17;1.67;;;;;;;;;;5059036;28;20239;-70
2022/06/12 10:52:34;;;;;;;3.65;1.63;;;;;;;;;;5062719;28;20202;-70
2022/06/12 10:55:00;;;;;;;1.70;1.40;;;;;;;;;;5062638;28;20205;-70
2022/06/12 10:57:36;;;;;;;4.97;1.45;;;;;;;;;;5062187;28;20192;-70
2022/06/12 11:00:05;;;;;;;3.55;1.52;;;;;;;;;;5062452;28;20223;-70
2022/06/12 11:02:58;;;;;;;3.00;1.25;;;;;;;;;;5062136;28;20527;-70
2022/06/12 11:05:33;;;;;;;2.15;1.30;;;;;;;;;;5038065;28;20224;-70
2022/06/12 11:08:03;;;;;;;2.65;1.50;;;;;;;;;;5062158;28;20231;-70
2022/06/12 11:10:33;;;;;;;1.50;1.40;;;;;;;;;;5062454;28;20203;-70
2022/06/12 11:13:11;;;;;;;2.40;1.25;;;;;;;;;;5062140;28;20200;-70
2022/06/12 11:15:51;;;;;;;2.65;1.33;;;;;;;;;;5062187;28;20288;-70
2022/06/12 11:18:21;;;;;;;2.85;1.20;;;;;;;;;;5062084;28;20193;-70
2022/06/12 11:20:53;;;;;;;2.38;1.20;;;;;;;;;;5062098;28;20210;-70
2022/06/12 11:23:30;;;;;;;2.83;1.33;;;;;;;;;;5062040;28;20210;-70
2022/06/12 11:26:05;;;;;;;2.17;1.55;;;;;;;;;;5062143;28;20203;-70
2022/06/12 11:28:38;;;;;;;1.60;1.50;;;;;;;;;;5062168;28;20416;-70
2022/06/12 11:31:12;;;;;;;5.18;1.45;;;;;;;;;;5062200;28;20210;-71
2022/06/12 11:33:48;;;;;;;3.95;1.48;;;;;;;;;;5061955;28;20203;-70
2022/06/12 11:36:19;;;;;;;3.10;1.27;;;;;;;;;;5062011;28;20200;-70
2022/06/12 11:38:53;;;;;;;1.70;1.38;;;;;;;;;;5062205;28;20196;-70
2022/06/12 11:41:25;;;;;;;2.20;1.60;;;;;;;;;;5061999;28;20200;-70
2022/06/12 11:43:57;;;;;;;2.70;1.55;;;;;;;;;;5062047;28;20204;-70
2022/06/12 11:46:29;;;;;;;2.58;1.77;;;;;;;;;;5061548;28;20224;-70
2022/06/12 11:49:07;;;;;;;1.58;1.48;;;;;;;;;;5062019;28;20500;-70
2022/06/12 11:51:38;;;;;;;2.88;1.67;;;;;;;;;;5061878;28;20250;-70
2022/06/12 11:54:11;;;;;;;2.40;1.77;;;;;;;;;;5061548;28;20436;-71
2022/06/12 11:56:44;;;;;;;3.95;1.80;;;;;;;;;;5061512;28;20504;-71
2022/06/12 11:59:18;;;;;;;4.30;1.80;;;;;;;;;;5062025;28;20231;-71
2022/06/12 12:01:47;;;;;;;3.10;1.60;;;;;;;;;;5061685;28;20260;-71
2022/06/12 12:04:28;;;;;;;3.00;1.35;;;;;;;;;;5062114;28;20392;-71
2022/06/12 12:07:00;;;;;;;1.52;1.40;;;;;;;;;;5038858;28;20221;-71
2022/06/12 12:09:34;;;;;;;1.80;1.50;;;;;;;;;;5061813;28;20196;-71
2022/06/12 12:12:02;;;;;;;4.28;1.80;;;;;;;;;;5061893;28;20196;-71
2022/06/12 12:14:30;;;;;;;1.80;1.70;;;;;;;;;;5061692;28;20386;-71
2022/06/12 12:16:58;;;;;;;3.65;1.77;;;;;;;;;;5061475;28;20193;-71
2022/06/12 12:19:26;;;;;;;1.92;1.75;;;;;;;;;;5061616;28;20387;-71
2022/06/12 12:21:55;;;;;;;1.52;1.42;;;;;;;;;;5061525;28;20204;-71
2022/06/12 12:24:24;;;;;;;4.60;1.80;;;;;;;;;;5061633;28;20196;-71
2022/06/12 12:26:52;;;;;;;4.28;1.70;;;;;;;;;;5061271;28;20208;-71
2022/06/12 12:29:21;;;;;;;2.45;1.60;;;;;;;;;;5064459;28;20197;-71
2022/06/12 12:31:48;;;;;;;2.38;1.83;;;;;;;;;;5065628;28;20211;-71
2022/06/12 12:34:15;;;;;;;3.33;1.48;;;;;;;;;;5064903;28;20197;-71
2022/06/12 12:42:23;;;;;;;2.78;1.77;;;;;;;;;;5064925;28;20198;-71
2022/06/12 12:44:50;;;;;;;1.92;1.77;;;;;;;;;;5064865;28;20196;-71
2022/06/12 12:47:18;;;;;;;5.05;1.83;;;;;;;;;;5064543;28;20558;-71
2022/06/12 12:49:44;;;;;;;1.60;1.50;;;;;;;;;;5064924;28;20197;-71
2022/06/12 12:52:14;;;;;;;2.15;1.45;;;;;;;;;;5064697;28;20500;-71
2022/06/12 12:54:47;;;;;;;3.95;1.40;;;;;;;;;;5064764;28;20196;-71
2022/06/12 12:57:14;;;;;;;3.10;1.77;;;;;;;;;;5064230;28;20422;-71
2022/06/12 12:59:42;;;;;;;1.73;1.63;;;;;;;;;;5064762;28;20197;-71
2022/06/12 13:02:30;;;;;;;4.05;1.60;;;;;;;;;;5064565;28;20394;-71
2022/06/12 13:04:58;;;;;;;4.47;1.50;;;;;;;;;;5060786;28;20283;-71
2022/06/12 13:07:35;;;;;;;3.97;1.70;;;;;;;;;;5064018;28;20221;-71
2022/06/12 13:10:11;;;;;;;2.53;1.70;;;;;;;;;;5064550;28;20208;-71
2022/06/12 13:12:54;;;;;;;1.48;1.38;;;;;;;;;;5064502;28;20203;-71
2022/06/12 13:15:27;;;;;;;1.83;1.63;;;;;;;;;;5064345;28;20525;-71
2022/06/12 13:17:57;;;;;;;2.95;1.75;;;;;;;;;;5063860;28;20489;-71
2022/06/12 13:20:29;;;;;;;2.55;1.50;;;;;;;;;;5064262;28;20200;-71
2022/06/12 13:23:04;;;;;;;3.65;1.98;;;;;;;;;;5064205;28;20196;-71
2022/06/12 13:25:34;;;;;;;5.43;1.40;;;;;;;;;;5064152;28;20196;-71
2022/06/12 13:28:01;;;;;;;3.17;1.60;;;;;;;;;;5063905;28;20220;-71
2022/06/12 13:30:29;;;;;;;2.95;1.55;;;;;;;;;;5063906;28;20196;-71
2022/06/12 13:33:06;;;;;;;2.53;1.67;;;;;;;;;;5064160;28;20203;-71
2022/06/12 13:35:35;;;;;;;2.53;1.35;;;;;;;;;;5064015;28;20204;-71
2022/06/12 13:38:03;;;;;;;1.80;1.70;;;;;;;;;;5063671;28;20199;-71
2022/06/12 13:40:31;;;;;;;3.92;2.05;;;;;;;;;;5063662;28;20203;-71
2022/06/12 13:43:10;;;;;;;2.88;1.58;;;;;;;;;;5063591;28;20201;-71
2022/06/12 13:45:37;;;;;;;1.85;1.70;;;;;;;;;;5063872;28;20204;-71
2022/06/12 13:48:12;;;;;;;2.22;1.73;;;;;;;;;;5063447;28;20555;-71
2022/06/12 13:50:39;;;;;;;1.52;1.33;;;;;;;;;;5063627;28;20203;-71
2022/06/12 13:53:14;;;;;;;1.85;1.70;;;;;;;;;;5063625;28;20381;-71
2022/06/12 13:55:43;;;;;;;2.08;1.65;;;;;;;;;;5063358;28;20203;-71
2022/06/12 13:58:17;;;;;;;3.50;1.58;;;;;;;;;;5063409;28;20200;-71
2022/06/12 14:00:45;;;;;;;3.72;1.50;;;;;;;;;;5063564;28;20200;-71
2022/06/12 14:03:17;;;;;;;2.03;1.30;;;;;;;;;;5063371;28;20398;-71
2022/06/12 14:05:46;;;;;;;1.58;1.40;;;;;;;;;;5063200;28;20421;-71
2022/06/12 14:08:13;;;;;;;3.50;1.67;;;;;;;;;;5062763;28;20539;-71
2022/06/12 14:10:40;;;;;;;2.50;1.40;;;;;;;;;;5063195;28;20204;-71
2022/06/12 14:13:08;;;;;;;3.28;1.85;;;;;;;;;;5063020;28;20203;-71
2022/06/12 14:15:36;;;;;;;2.08;1.50;;;;;;;;;;5063237;28;20196;-71
2022/06/12 14:18:04;;;;;;;2.05;1.30;;;;;;;;;;5062840;28;20203;-71
2022/06/12 14:20:31;;;;;;;2.30;1.83;;;;;;;;;;5062990;28;20197;-71
2022/06/12 14:22:58;;;;;;;1.77;1.67;;;;;;;;;;5062891;28;20219;-71
2022/06/12 14:25:26;;;;;;;2.00;1.60;;;;;;;;;;5063201;28;20455;-72
2022/06/12 14:27:57;;;;;;;3.47;1.50;;;;;;;;;;5062663;28;20224;-72
2022/06/12 14:30:38;;;;;;;1.65;1.48;;;;;;;;;;5062930;28;20220;-72
2022/06/12 14:33:21;;;;;;;1.77;1.50;;;;;;;;;;5062854;28;20235;-71
2022/06/12 14:35:48;;;;;;;4.40;1.65;;;;;;;;;;5062832;28;20196;-72
2022/06/12 14:38:17;;;;;;;1.50;1.40;;;;;;;;;;5062565;28;20413;-71
2022/06/12 14:40:43;;;;;;;4.90;1.70;;;;;;;;;;5062719;28;20441;-71
2022/06/12 14:43:15;;;;;;;2.55;1.55;;;;;;;;;;5062511;28;20196;-71
2022/06/12 14:45:44;;;;;;;2.80;1.45;;;;;;;;;;5062883;28;20399;-71
2022/06/12 14:48:12;;;;;;;1.50;1.50;;;;;;;;;;5062412;28;20220;-71
2022/06/12 14:50:38;;;;;;;1.95;1.48;;;;;;;;;;5061662;28;20197;-71
2022/06/12 14:53:04;;;;;;;3.72;1.50;;;;;;;;;;5062157;28;20204;-71
2022/06/12 14:55:31;;;;;;;2.58;1.35;;;;;;;;;;5062406;28;20279;-71
2022/06/12 14:57:57;;;;;;;2.92;1.38;;;;;;;;;;5058124;28;20192;-71
2022/06/12 15:00:25;;;;;;;1.50;1.40;;;;;;;;;;5054892;28;20428;-72
2022/06/12 15:02:52;;;;;;;3.88;1.35;;;;;;;;;;5062157;28;20204;-71
2022/06/12 15:05:22;;;;;;;1.60;1.40;;;;;;;;;;5062053;28;20267;-71
2022/06/12 15:07:48;;;;;;;1.75;1.40;;;;;;;;;;5061912;28;20224;-71
2022/06/12 15:10:15;;;;;;;3.50;1.70;;;;;;;;;;5062182;28;20201;-71